Armada, Michigan
Current Conditions -  °F | °C
As of 5:55 PM on Monday 24 Nov 2014 (Local Time) from KMTC Reporting Station
Overcast Overcast  
Wind Chill: -1°   Ceiling: 2300
Heat Index:   Visibility: 12mi
Dew Point:   Wind: 28mph
Humidity: 77%   Direction: 230°SW
Pressure: 29.45"   Gusts: 39mph
Location:  42.84°N, 82.88°W
Report Text: KMTC 242255Z 23024G34KT 12SM OVC023 05/01 A2945 RMK PK WND 22046/39 SLP980 T00470010
Loading
Personal Weather Stations






























Interactive Weather Map New forecast layout! Learn more

10-Day Weather Forecast

Advertisements
Track Severe Weather on mobile